Time;durP1;ratioP1;P1;durP2;ratioP2;P2;SDS_P1;SDS_P2;PMS_P1;PMS_P2;Temp;Humidity;BMP_temperature;BMP_pressure;BME280_temperature;BME280_humidity;BME280_pressure;Samples;Min_cycle;Max_cycle;Signal;HPM_P1;HPM_P2
2021/10/26 00:00:34;;;;;;;101.60;36.17;;;;;;;-1.69;90.88;101666.97;1715080;82;21131;-77
2021/10/26 00:03:01;;;;;;;95.60;36.53;;;;;;;-1.67;91.02;101669.62;1715914;83;21533;-75
2021/10/26 00:05:28;;;;;;;107.78;38.75;;;;;;;-1.67;90.82;101668.75;1714613;83;21005;-75
2021/10/26 00:07:54;;;;;;;99.10;36.80;;;;;;;-1.67;90.94;101662.30;1713290;83;21140;-75
2021/10/26 00:10:21;;;;;;;113.70;40.70;;;;;;;-1.70;91.01;101658.77;1713070;82;21072;-74
2021/10/26 00:12:48;;;;;;;111.50;42.53;;;;;;;-1.69;91.28;101657.06;1742068;82;21092;-76
2021/10/26 00:15:14;;;;;;;113.68;38.80;;;;;;;-1.69;91.11;101651.89;1720553;82;21070;-74
2021/10/26 00:17:41;;;;;;;99.55;37.05;;;;;;;-1.70;91.30;101657.89;1742288;81;21093;-75
2021/10/26 00:20:09;;;;;;;102.80;37.05;;;;;;;-1.69;91.17;101653.19;1742624;82;21153;-73
2021/10/26 00:22:35;;;;;;;94.83;36.45;;;;;;;-1.67;91.21;101654.13;1742307;81;21085;-75
2021/10/26 00:25:03;;;;;;;91.70;35.43;;;;;;;-1.65;91.22;101649.03;1742374;82;21128;-78
2021/10/26 00:27:31;;;;;;;84.05;31.97;;;;;;;-1.62;90.96;101647.42;1742542;82;21322;-76
2021/10/26 00:29:57;;;;;;;76.25;29.15;;;;;;;-1.59;91.11;101644.06;1742367;82;21081;-77
2021/10/26 00:32:23;;;;;;;80.55;31.50;;;;;;;-1.55;91.12;101642.06;1742140;82;22122;-77
2021/10/26 00:34:50;;;;;;;75.92;28.20;;;;;;;-1.51;91.21;101638.36;1742320;82;21632;-77
2021/10/26 00:37:16;;;;;;;72.27;28.47;;;;;;;-1.45;91.35;101634.23;1742615;82;21445;-77
2021/10/26 00:39:43;;;;;;;66.30;25.27;;;;;;;-1.42;91.06;101632.66;1742358;82;21045;-76
2021/10/26 00:42:11;;;;;;;63.42;26.15;;;;;;;-1.40;90.92;101625.84;1742500;82;21543;-76
2021/10/26 00:44:38;;;;;;;73.22;29.45;;;;;;;-1.36;91.39;101630.69;1746245;82;21125;-76
2021/10/26 00:47:05;;;;;;;78.80;29.07;;;;;;;-1.37;90.57;101625.06;1750321;82;21052;-76
2021/10/26 00:49:33;;;;;;;92.42;33.10;;;;;;;-1.40;90.72;101621.05;1750093;81;21025;-77
2021/10/26 00:52:00;;;;;;;75.25;28.83;;;;;;;-1.43;90.38;101620.53;1749827;82;21523;-77
2021/10/26 00:54:28;;;;;;;75.70;29.85;;;;;;;-1.48;90.24;101615.20;1750157;81;21088;-77
2021/10/26 00:56:59;;;;;;;77.22;29.95;;;;;;;-1.50;90.78;101616.84;1749982;82;21218;-76
2021/10/26 00:59:27;;;;;;;70.57;27.25;;;;;;;-1.53;90.53;101618.04;1720981;82;21048;-75
2021/10/26 01:01:55;;;;;;;67.50;27.63;;;;;;;-1.55;90.81;101618.39;1720716;82;21077;-75
2021/10/26 01:04:21;;;;;;;71.47;28.87;;;;;;;-1.57;90.66;101611.42;1737454;82;21054;-75
2021/10/26 01:06:48;;;;;;;68.78;27.32;;;;;;;-1.61;90.61;101610.45;1750266;82;21616;-76
2021/10/26 01:09:15;;;;;;;65.45;26.52;;;;;;;-1.62;91.07;101602.20;1750200;82;21114;-76
2021/10/26 01:11:43;;;;;;;62.38;24.32;;;;;;;-1.62;91.15;101610.38;1749901;82;21091;-79
2021/10/26 01:14:11;;;;;;;49.03;19.30;;;;;;;-1.61;91.38;101615.61;1749932;82;21051;-78
2021/10/26 01:16:38;;;;;;;50.08;18.65;;;;;;;-1.62;91.29;101608.67;1750243;82;21576;-78
2021/10/26 01:19:05;;;;;;;42.73;17.02;;;;;;;-1.64;91.29;101611.60;1750203;82;21030;-77
2021/10/26 01:21:34;;;;;;;59.13;23.98;;;;;;;-1.64;91.35;101615.48;1749934;82;21817;-77
2021/10/26 01:24:01;;;;;;;71.30;29.42;;;;;;;-1.69;91.27;101609.27;1749956;82;21110;-78
2021/10/26 01:26:27;;;;;;;58.90;22.58;;;;;;;-1.69;91.54;101615.73;1750148;82;21534;-75
2021/10/26 01:28:54;;;;;;;41.35;19.12;;;;;;;-1.71;91.47;101615.66;1749971;82;21106;-75
2021/10/26 01:31:22;;;;;;;69.87;26.48;;;;;;;-1.71;91.84;101609.63;1750466;82;21051;-77
2021/10/26 01:33:49;;;;;;;62.70;24.77;;;;;;;-1.74;91.97;101603.94;1750285;82;21812;-76
2021/10/26 01:36:22;;;;;;;58.15;24.67;;;;;;;-1.75;92.12;101603.48;1748373;82;21118;-74
2021/10/26 01:38:50;;;;;;;63.05;25.72;;;;;;;-1.75;92.24;101601.29;1750216;82;21549;-76
2021/10/26 01:41:17;;;;;;;54.53;22.70;;;;;;;-1.77;92.18;101600.35;1749953;82;21070;-74
2021/10/26 01:43:44;;;;;;;55.20;23.45;;;;;;;-1.79;92.10;101605.91;1750174;82;21054;-76
2021/10/26 01:46:11;;;;;;;74.20;28.98;;;;;;;-1.81;92.14;101597.22;1744826;82;21141;-76
2021/10/26 01:48:39;;;;;;;62.90;25.95;;;;;;;-1.83;91.95;101599.73;1744304;82;20997;-76
2021/10/26 01:51:06;;;;;;;71.12;27.25;;;;;;;-1.85;91.90;101601.79;1741933;82;21090;-76
2021/10/26 01:53:33;;;;;;;58.58;23.52;;;;;;;-1.86;92.36;101603.50;1742340;82;21676;-76
2021/10/26 01:56:00;;;;;;;56.37;24.35;;;;;;;-1.87;92.57;101603.43;1741898;82;21090;-76
2021/10/26 01:58:29;;;;;;;57.15;23.38;;;;;;;-1.87;92.96;101599.55;1732430;82;21130;-76
2021/10/26 02:01:03;;;;;;;49.05;20.40;;;;;;;-1.87;93.01;101606.02;1683137;83;21078;-76
2021/10/26 02:03:31;;;;;;;53.25;21.75;;;;;;;-1.87;93.00;101598.27;1710857;83;21056;-76
2021/10/26 02:05:58;;;;;;;41.28;17.55;;;;;;;-1.87;92.89;101598.27;1739602;82;21504;-76
2021/10/26 02:08:25;;;;;;;58.55;22.87;;;;;;;-1.88;93.09;101596.52;1742054;81;21023;-78
2021/10/26 02:10:52;;;;;;;55.12;21.40;;;;;;;-1.87;93.35;101602.14;1741925;82;21792;-76
2021/10/26 02:13:19;;;;;;;49.60;21.05;;;;;;;-1.90;93.21;101590.88;1742123;81;20989;-75
2021/10/26 02:15:47;;;;;;;54.23;21.48;;;;;;;-1.88;93.19;101595.23;1742175;81;21546;-76
2021/10/26 02:18:13;;;;;;;58.80;23.27;;;;;;;-1.91;93.27;101598.16;1742268;81;21272;-76
2021/10/26 02:20:40;;;;;;;54.15;22.42;;;;;;;-1.92;93.57;101587.77;1742148;81;21036;-80
2021/10/26 02:23:07;;;;;;;52.38;22.30;;;;;;;-1.93;93.65;101588.19;1741782;82;22366;-77
2021/10/26 02:25:34;;;;;;;55.85;22.07;;;;;;;-1.93;93.80;101589.48;1742034;82;21048;-76
2021/10/26 02:28:02;;;;;;;60.75;25.72;;;;;;;-1.94;93.48;101590.28;1742049;82;21052;-77
2021/10/26 02:30:29;;;;;;;55.98;23.05;;;;;;;-1.97;93.18;101583.72;1742083;82;21060;-76
2021/10/26 02:32:56;;;;;;;57.93;24.50;;;;;;;-2.00;93.42;101583.63;1720846;82;21108;-77
2021/10/26 02:35:22;;;;;;;57.55;23.62;;;;;;;-2.03;93.13;101578.73;1742172;82;21081;-78
2021/10/26 02:37:49;;;;;;;56.48;23.22;;;;;;;-2.10;93.29;101568.59;1741839;82;21029;-77
2021/10/26 02:40:16;;;;;;;65.87;25.00;;;;;;;-2.07;93.46;101573.89;1742036;82;21037;-78
2021/10/26 02:42:42;;;;;;;52.15;23.87;;;;;;;-2.07;93.54;101575.18;1742054;82;21016;-78
2021/10/26 02:45:10;;;;;;;55.75;23.87;;;;;;;-2.08;93.96;101577.28;1741689;82;21008;-78
2021/10/26 02:47:38;;;;;;;53.67;22.87;;;;;;;-2.06;93.83;101574.34;1742214;82;21181;-76
2021/10/26 02:50:07;;;;;;;54.55;23.15;;;;;;;-2.05;94.01;101568.77;1742810;82;21071;-76
2021/10/26 02:52:38;;;;;;;59.98;24.20;;;;;;;-2.08;93.85;101565.66;1742404;82;21091;-76
2021/10/26 02:55:06;;;;;;;57.08;23.95;;;;;;;-2.07;93.87;101567.83;1742529;82;21045;-76
2021/10/26 02:57:35;;;;;;;58.48;22.73;;;;;;;-2.08;93.92;101569.95;1742455;82;21058;-77
2021/10/26 03:00:02;;;;;;;57.60;23.32;;;;;;;-2.09;94.19;101565.20;1742066;82;21403;-79
2021/10/26 03:02:31;;;;;;;45.03;20.12;;;;;;;-2.09;94.32;101561.33;1742076;82;21085;-78
2021/10/26 03:04:58;;;;;;;50.83;21.48;;;;;;;-2.06;94.63;101568.31;1742128;82;21575;-80
2021/10/26 03:07:24;;;;;;;43.83;20.60;;;;;;;-2.03;94.82;101562.83;1742491;81;21069;-78
2021/10/26 03:09:51;;;;;;;56.33;21.50;;;;;;;-1.99;95.06;101562.13;1742143;82;21049;-77
2021/10/26 03:12:18;;;;;;;57.83;24.15;;;;;;;-1.96;94.96;101558.78;1742207;81;21572;-76
2021/10/26 03:14:44;;;;;;;56.18;21.62;;;;;;;-1.95;94.56;101556.68;1742176;81;21029;-74
2021/10/26 03:17:12;;;;;;;64.07;24.77;;;;;;;-1.93;94.46;101553.33;1736823;80;21103;-78
2021/10/26 03:19:40;;;;;;;60.83;23.62;;;;;;;-1.88;94.36;101550.05;1751756;80;21085;-79
2021/10/26 03:22:07;;;;;;;55.85;22.75;;;;;;;-1.87;94.26;101550.49;1747901;80;21594;-78
2021/10/26 03:24:33;;;;;;;45.50;21.30;;;;;;;-1.89;94.17;101547.84;1742029;82;21150;-79
2021/10/26 03:27:00;;;;;;;56.60;21.65;;;;;;;-1.87;93.94;101546.63;1740645;82;21002;-79
2021/10/26 03:29:26;;;;;;;50.98;21.93;;;;;;;-1.84;94.42;101547.62;1707296;82;21045;-79
2021/10/26 03:31:56;;;;;;;56.83;22.10;;;;;;;-1.83;93.70;101547.20;1706231;84;20998;-77
2021/10/26 03:34:27;;;;;;;51.98;22.25;;;;;;;-1.82;93.99;101548.95;1703019;84;21806;-78
2021/10/26 03:36:54;;;;;;;46.08;22.55;;;;;;;-1.84;93.74;101540.27;1706427;84;21134;-79
2021/10/26 03:39:20;;;;;;;53.38;23.18;;;;;;;-1.84;93.81;101542.46;1725836;82;21576;-76
2021/10/26 03:41:47;;;;;;;61.10;22.80;;;;;;;-1.86;93.63;101546.69;1741464;82;21030;-77
2021/10/26 03:44:14;;;;;;;48.33;20.92;;;;;;;-1.86;93.74;101544.48;1744129;80;21049;-78
2021/10/26 03:46:40;;;;;;;46.50;20.08;;;;;;;-1.87;93.91;101535.88;1746763;81;21177;-75
2021/10/26 03:49:07;;;;;;;55.48;23.07;;;;;;;-1.86;94.17;101538.03;1747298;82;21479;-76
2021/10/26 03:51:33;;;;;;;53.95;22.58;;;;;;;-1.86;93.82;101543.20;1747015;82;21594;-75
2021/10/26 03:54:00;;;;;;;56.53;21.57;;;;;;;-1.85;93.67;101538.52;1747514;82;21079;-75
2021/10/26 03:56:26;;;;;;;52.45;22.07;;;;;;;-1.85;93.81;101533.36;1747670;82;21008;-74
2021/10/26 03:58:55;;;;;;;49.40;22.10;;;;;;;-1.82;93.70;101534.75;1746228;81;21055;-74
2021/10/26 04:01:21;;;;;;;55.10;22.95;;;;;;;-1.81;93.45;101539.11;1746972;82;21764;-74
2021/10/26 04:03:48;;;;;;;55.88;23.20;;;;;;;-1.82;93.25;101532.16;1746446;82;21075;-75
2021/10/26 04:06:23;;;;;;;47.98;23.80;;;;;;;-1.84;93.19;101526.06;1735481;82;21607;-74
2021/10/26 04:11:21;;;;;;;49.05;22.37;;;;;;;-1.81;93.51;101524.91;1692318;83;21063;-74
2021/10/26 04:13:47;;;;;;;48.45;20.05;;;;;;;-1.80;93.32;101524.06;1659674;85;21821;-73
2021/10/26 04:16:14;;;;;;;52.27;22.83;;;;;;;-1.79;93.20;101528.42;1654252;85;21075;-76
2021/10/26 04:18:41;;;;;;;48.58;21.60;;;;;;;-1.78;93.14;101527.16;1693290;83;21088;-72
2021/10/26 04:21:08;;;;;;;47.00;21.20;;;;;;;-1.77;93.16;101529.33;1697589;83;21124;-75
2021/10/26 04:23:50;;;;;;;58.25;22.80;;;;;;;-1.77;93.05;101534.11;1704867;82;21030;-76
2021/10/26 04:26:17;;;;;;;51.05;23.50;;;;;;;-1.78;93.09;101528.87;1728807;82;21106;-74
2021/10/26 04:28:44;;;;;;;65.57;27.20;;;;;;;-1.79;92.91;101533.59;1747475;82;22347;-74
2021/10/26 04:31:10;;;;;;;67.85;26.50;;;;;;;-1.81;92.73;101531.36;1747086;82;21079;-75
2021/10/26 04:33:37;;;;;;;62.73;25.80;;;;;;;-1.84;92.53;101532.52;1734631;82;21072;-73
2021/10/26 04:36:03;;;;;;;68.40;25.50;;;;;;;-1.89;92.81;101533.64;1695007;82;21052;-74
2021/10/26 04:38:30;;;;;;;77.92;30.02;;;;;;;-1.92;92.93;101532.25;1710982;83;21125;-74
2021/10/26 04:41:01;;;;;;;75.15;28.27;;;;;;;-1.97;93.03;101542.41;1720242;82;21061;-74
2021/10/26 04:43:29;;;;;;;65.80;25.65;;;;;;;-2.01;93.08;101534.08;1715035;83;21048;-74
2021/10/26 04:45:55;;;;;;;70.12;28.32;;;;;;;-2.04;93.46;101537.86;1738968;81;21050;-75
2021/10/26 04:48:22;;;;;;;70.70;27.05;;;;;;;-2.08;93.58;101541.14;1746395;81;21046;-74
2021/10/26 04:50:49;;;;;;;88.90;33.30;;;;;;;-2.16;93.61;101534.83;1743893;82;21077;-74
2021/10/26 04:53:17;;;;;;;78.10;29.72;;;;;;;-2.15;93.92;101535.28;1730456;82;21059;-73
2021/10/26 04:55:55;;;;;;;81.67;30.37;;;;;;;-2.17;93.89;101541.67;1736268;81;21006;-75
2021/10/26 04:58:22;;;;;;;58.52;23.80;;;;;;;-2.18;94.09;101540.34;1769098;80;21050;-73
2021/10/26 05:00:50;;;;;;;65.78;26.62;;;;;;;-2.19;94.15;101539.86;1771172;81;21084;-75
2021/10/26 05:03:17;;;;;;;69.70;28.70;;;;;;;-2.18;94.47;101537.77;1740577;81;21756;-75
2021/10/26 05:05:44;;;;;;;56.98;24.25;;;;;;;-2.19;94.37;101538.56;1755625;81;21089;-75
2021/10/26 05:08:11;;;;;;;62.05;27.98;;;;;;;-2.21;93.78;101541.50;1728520;82;21489;-74
2021/10/26 05:10:37;;;;;;;62.17;26.27;;;;;;;-2.21;93.77;101546.66;1738815;80;21077;-74
2021/10/26 05:13:05;;;;;;;67.87;26.48;;;;;;;-2.21;93.62;101545.37;1739892;80;21057;-74
2021/10/26 05:15:51;;;;;;;65.97;27.25;;;;;;;-2.21;93.62;101549.23;1750791;81;21622;-74
2021/10/26 05:18:22;;;;;;;69.22;27.37;;;;;;;-2.19;93.49;101551.47;1734659;82;21028;-75
2021/10/26 05:21:12;;;;;;;77.80;30.17;;;;;;;-2.17;93.74;101544.67;1739561;82;21093;-75
2021/10/26 05:23:45;;;;;;;68.50;28.95;;;;;;;-2.16;93.83;101554.19;1738610;82;21287;-74
2021/10/26 05:26:26;;;;;;;65.55;26.82;;;;;;;-2.16;93.97;101552.89;1732827;81;21002;-74
2021/10/26 05:28:52;;;;;;;60.30;24.80;;;;;;;-2.14;94.07;101552.13;1746858;82;21696;-74
2021/10/26 05:31:19;;;;;;;58.90;25.48;;;;;;;-2.08;94.57;101549.30;1743535;82;21075;-74
2021/10/26 05:33:46;;;;;;;52.85;22.60;;;;;;;-2.01;94.96;101544.41;1746539;81;21070;-73
2021/10/26 05:36:15;;;;;;;68.52;26.90;;;;;;;-1.90;95.28;101550.84;1742833;82;21052;-74
2021/10/26 05:38:42;;;;;;;64.35;26.23;;;;;;;-1.78;95.12;101549.53;1747195;82;21642;-74
2021/10/26 05:41:11;;;;;;;63.25;25.35;;;;;;;-1.61;95.10;101547.16;1744710;80;21208;-74
2021/10/26 05:43:39;;;;;;;59.30;26.05;;;;;;;-1.04;94.86;101543.89;1742299;82;21523;-74
2021/10/26 05:46:05;;;;;;;64.20;24.27;;;;;;;-0.26;93.98;101543.75;1740906;82;21078;-74
2021/10/26 05:48:33;;;;;;;58.23;26.05;;;;;;;0.59;89.80;101545.70;1738056;81;21042;-74
2021/10/26 05:51:01;;;;;;;66.67;25.57;;;;;;;1.39;84.83;101546.38;1738759;82;21365;-75
2021/10/26 05:53:31;;;;;;;58.08;23.85;;;;;;;2.04;83.03;101539.55;1740100;81;21123;-74
2021/10/26 05:55:57;;;;;;;52.38;23.30;;;;;;;2.43;81.11;101539.89;1730442;82;22015;-74
2021/10/26 05:58:24;;;;;;;51.28;22.65;;;;;;;2.84;77.88;101540.20;1737844;82;21081;-75
2021/10/26 06:00:51;;;;;;;47.35;22.98;;;;;;;3.30;75.21;101531.83;1736965;82;21615;-75
2021/10/26 06:03:17;;;;;;;43.10;20.97;;;;;;;3.83;72.54;101538.66;1735796;82;21587;-75
2021/10/26 06:05:44;;;;;;;39.55;19.65;;;;;;;4.38;72.54;101544.09;1737520;81;21989;-75
2021/10/26 06:08:11;;;;;;;40.33;19.23;;;;;;;5.01;70.25;101544.70;1737345;81;21403;-74
2021/10/26 06:10:46;;;;;;;40.28;20.80;;;;;;;5.64;67.09;101538.64;1736805;81;21113;-74
2021/10/26 06:13:18;;;;;;;34.63;18.65;;;;;;;6.20;65.20;101542.84;1736633;81;21041;-76
2021/10/26 06:15:41;;;;;;;39.23;18.90;;;;;;;6.71;63.50;101535.55;1715045;82;21096;-75
2021/10/26 06:18:08;;;;;;;38.92;20.52;;;;;;;7.19;59.40;101538.64;1737080;81;21647;-75
2021/10/26 06:20:37;;;;;;;40.33;19.55;;;;;;;7.45;57.72;101536.84;1733540;82;21123;-75
2021/10/26 06:23:03;;;;;;;38.28;20.45;;;;;;;7.72;56.71;101537.22;1735495;81;21062;-75
2021/10/26 06:25:32;;;;;;;40.52;21.35;;;;;;;8.02;54.98;101532.75;1740087;81;21006;-75
2021/10/26 06:28:17;;;;;;;41.08;21.85;;;;;;;8.40;55.60;101540.48;1734142;81;21012;-75
2021/10/26 06:30:45;;;;;;;41.73;20.82;;;;;;;8.93;52.40;101538.39;1717197;81;21113;-75
2021/10/26 06:33:12;;;;;;;40.65;21.35;;;;;;;9.26;51.11;101535.04;1720133;82;21564;-76
2021/10/26 06:35:41;;;;;;;39.60;20.48;;;;;;;9.40;48.01;101531.83;1739610;82;21638;-75
2021/10/26 06:38:08;;;;;;;39.18;21.35;;;;;;;9.46;47.50;101524.34;1733882;82;21029;-76
2021/10/26 06:40:36;;;;;;;40.25;20.68;;;;;;;9.57;47.54;101534.73;1735137;82;21628;-77
2021/10/26 06:43:22;;;;;;;46.73;22.15;;;;;;;9.92;47.19;101533.49;1734901;82;21138;-75
2021/10/26 06:45:53;;;;;;;39.00;19.77;;;;;;;10.03;45.73;101522.36;1691509;82;21663;-76
2021/10/26 06:48:38;;;;;;;33.48;19.42;;;;;;;10.39;47.43;101516.23;1749281;82;21027;-75
2021/10/26 06:51:09;;;;;;;32.23;17.95;;;;;;;10.81;46.41;101513.41;1731111;80;21056;-76
2021/10/26 06:53:54;;;;;;;32.85;18.20;;;;;;;11.11;43.43;101513.34;1721634;82;21150;-75
2021/10/26 06:56:40;;;;;;;34.43;19.02;;;;;;;11.26;41.71;101513.97;1732899;82;21152;-77
2021/10/26 07:00:48;;;;;;;30.68;16.35;;;;;;;11.83;41.99;101516.41;1807920;79;22484;-76
2021/10/26 07:03:35;;;;;;;25.77;14.68;;;;;;;12.11;40.20;101515.87;1776737;80;21020;-75
2021/10/26 07:06:09;;;;;;;28.50;16.25;;;;;;;12.39;39.28;101510.38;1737154;80;21112;-81
2021/10/26 07:08:40;;;;;;;26.55;14.75;;;;;;;12.59;39.40;101507.75;1773148;80;21028;-78
2021/10/26 07:11:25;;;;;;;22.75;13.75;;;;;;;12.66;38.47;101509.34;1776273;79;21175;-79
2021/10/26 07:13:53;;;;;;;27.05;14.28;;;;;;;12.39;38.09;101518.31;1772459;80;21073;-81
2021/10/26 07:16:20;;;;;;;24.23;13.55;;;;;;;12.06;39.85;101509.83;1778862;79;21084;-80
2021/10/26 07:18:48;;;;;;;21.02;12.58;;;;;;;11.93;39.45;101511.84;1769518;78;21156;-75
2021/10/26 07:21:14;;;;;;;35.95;13.13;;;;;;;11.89;39.31;101508.41;1780003;80;21021;-74
2021/10/26 07:23:55;;;;;;;21.52;13.40;;;;;;;11.94;38.54;101506.53;1774896;80;21682;-73
2021/10/26 07:26:37;;;;;;;20.57;12.33;;;;;;;11.99;39.48;101502.48;1737921;81;21096;-73
2021/10/26 07:29:02;;;;;;;20.35;12.63;;;;;;;11.80;38.52;101501.96;1750499;80;22299;-73
2021/10/26 07:31:30;;;;;;;24.02;14.58;;;;;;;11.59;39.04;101494.45;1752418;81;21102;-74
2021/10/26 07:33:58;;;;;;;26.35;14.50;;;;;;;11.91;39.17;101490.73;1760625;80;21571;-73
2021/10/26 07:36:31;;;;;;;20.70;11.50;;;;;;;12.21;38.31;101496.27;1768382;80;21053;-74
2021/10/26 07:39:04;;;;;;;22.17;11.30;;;;;;;12.23;38.11;101498.42;1758096;80;21034;-74
2021/10/26 07:41:27;;;;;;;18.65;11.03;;;;;;;12.00;38.30;101491.46;1781422;78;21507;-74
2021/10/26 07:44:13;;;;;;;18.35;10.90;;;;;;;11.95;40.50;101487.14;1786179;78;21487;-74
2021/10/26 07:46:41;;;;;;;17.07;10.68;;;;;;;12.18;41.83;101473.89;1809234;78;21583;-74
2021/10/26 07:49:09;;;;;;;23.05;12.47;;;;;;;12.42;38.06;101479.06;1818502;78;21073;-75
2021/10/26 07:51:36;;;;;;;20.65;11.35;;;;;;;12.42;38.45;101474.23;1818420;78;21026;-74
2021/10/26 07:54:03;;;;;;;20.95;11.28;;;;;;;12.44;38.12;101475.07;1818315;78;21021;-74
2021/10/26 07:56:31;;;;;;;20.02;10.68;;;;;;;12.64;38.62;101470.19;1818795;78;21019;-74
2021/10/26 07:59:01;;;;;;;21.52;11.57;;;;;;;12.78;37.01;101461.45;1817912;78;21087;-74
2021/10/26 08:01:27;;;;;;;23.75;11.03;;;;;;;12.83;37.13;101468.41;1813773;79;20990;-74
2021/10/26 08:04:16;;;;;;;14.78;9.53;;;;;;;12.63;37.22;101464.50;1805870;79;22021;-74
2021/10/26 08:06:45;;;;;;;17.60;9.30;;;;;;;12.09;37.71;101476.74;1779154;80;21053;-74
2021/10/26 08:09:17;;;;;;;14.47;9.30;;;;;;;11.91;38.16;101469.62;1781526;80;21835;-74
2021/10/26 08:11:44;;;;;;;16.37;9.35;;;;;;;12.00;38.45;101460.64;1781281;80;21026;-74
2021/10/26 08:14:10;;;;;;;14.90;9.70;;;;;;;12.45;37.80;101459.66;1779541;80;21040;-74
2021/10/26 08:16:37;;;;;;;23.05;9.45;;;;;;;12.90;38.16;101451.48;1780921;80;21084;-74
2021/10/26 08:19:05;;;;;;;20.82;10.23;;;;;;;12.84;36.98;101447.23;1780748;80;21631;-74
2021/10/26 08:21:33;;;;;;;20.52;9.65;;;;;;;12.90;37.17;101447.52;1780887;80;21976;-73
2021/10/26 08:24:01;;;;;;;22.40;10.50;;;;;;;13.08;38.04;101445.72;1780883;80;21096;-74
2021/10/26 08:26:57;;;;;;;15.83;9.28;;;;;;;13.27;37.72;101443.44;1781284;80;21045;-73
2021/10/26 08:29:07;;;;;;;13.85;9.03;;;;;;;13.20;36.13;101442.77;1766123;80;21104;-73
2021/10/26 08:31:34;;;;;;;24.37;9.98;;;;;;;12.92;37.12;101441.73;1779307;80;21032;-74
2021/10/26 08:36:31;;;;;;;17.45;10.50;;;;;;;12.95;36.74;101435.04;1781163;80;21480;-76
2021/10/26 08:38:59;;;;;;;18.90;9.50;;;;;;;13.26;36.34;101442.17;1779530;80;21152;-73
2021/10/26 08:41:26;;;;;;;19.05;9.48;;;;;;;13.45;35.79;101438.13;1781091;79;21582;-73
2021/10/26 08:43:53;;;;;;;26.45;10.03;;;;;;;13.76;35.91;101428.00;1779558;80;21100;-73
2021/10/26 08:46:20;;;;;;;18.87;8.23;;;;;;;14.08;34.99;101429.67;1770514;79;21470;-74
2021/10/26 08:48:50;;;;;;;16.42;8.85;;;;;;;14.11;34.76;101432.22;1753101;80;21044;-74
2021/10/26 08:51:34;;;;;;;18.12;9.20;;;;;;;14.05;34.57;101427.96;1743872;82;21532;-74
2021/10/26 08:54:02;;;;;;;15.78;7.78;;;;;;;13.98;34.78;101431.72;1771004;80;20986;-75
2021/10/26 08:56:48;;;;;;;16.55;8.55;;;;;;;13.85;35.09;101433.02;1780825;80;21602;-74
2021/10/26 08:59:33;;;;;;;16.73;9.00;;;;;;;13.82;37.07;101429.13;1767594;80;21154;-75
2021/10/26 09:02:00;;;;;;;14.58;7.60;;;;;;;14.33;34.88;101428.42;1768708;79;21669;-75
2021/10/26 09:04:32;;;;;;;17.95;9.20;;;;;;;14.75;33.54;101424.01;1761856;80;21046;-73
2021/10/26 09:07:04;;;;;;;20.37;8.40;;;;;;;14.95;33.29;101421.12;1760664;79;21014;-74
2021/10/26 09:09:28;;;;;;;16.45;8.48;;;;;;;14.78;33.07;101422.56;1772211;80;21050;-73
2021/10/26 09:18:11;;;;;;;14.55;8.10;;;;;;;14.05;34.36;101415.19;1768626;79;26531;-75
2021/10/26 09:20:39;;;;;;;18.95;8.43;;;;;;;14.47;33.60;101408.98;1731451;80;21002;-74
2021/10/26 09:23:06;;;;;;;17.12;7.28;;;;;;;14.25;33.18;101410.59;1716400;79;21105;-74
2021/10/26 09:25:38;;;;;;;15.23;8.28;;;;;;;14.02;33.43;101406.87;1703227;81;21077;-74
2021/10/26 09:28:17;;;;;;;17.27;8.50;;;;;;;13.90;34.10;101399.78;1767019;80;21073;-75
2021/10/26 09:31:06;;;;;;;20.55;9.43;;;;;;;14.26;33.47;101399.06;1763998;80;21722;-74
2021/10/26 09:33:37;;;;;;;17.27;7.87;;;;;;;14.53;32.89;101392.47;1768555;80;21195;-74
2021/10/26 09:36:25;;;;;;;14.80;8.13;;;;;;;14.68;33.58;101389.34;1765808;79;21101;-75
2021/10/26 09:39:10;;;;;;;15.60;7.97;;;;;;;14.85;34.31;101384.30;1764566;80;21157;-74
2021/10/26 09:42:00;;;;;;;16.37;7.22;;;;;;;15.01;32.80;101378.00;1768839;80;21113;-74
2021/10/26 09:44:30;;;;;;;14.47;7.50;;;;;;;15.17;31.53;101384.09;1755500;80;21096;-73
2021/10/26 09:47:23;;;;;;;14.80;8.38;;;;;;;14.61;32.12;101378.54;1757168;80;22770;-75
2021/10/26 09:49:56;;;;;;;12.73;7.15;;;;;;;14.66;32.63;101375.27;1767259;79;21452;-75
2021/10/26 09:52:29;;;;;;;18.92;8.03;;;;;;;14.60;32.63;101368.84;1768126;80;22092;-76
2021/10/26 09:55:14;;;;;;;20.80;7.45;;;;;;;14.47;32.09;101367.91;1756038;80;21535;-75
2021/10/26 09:57:59;;;;;;;14.43;7.85;;;;;;;14.20;32.90;101359.54;1753757;80;21073;-73
2021/10/26 10:00:39;;;;;;;16.62;6.55;;;;;;;13.98;32.43;101361.53;1762255;79;21148;-73
2021/10/26 10:03:10;;;;;;;13.08;7.97;;;;;;;13.84;32.75;101353.16;1758772;79;21064;-73
2021/10/26 10:05:40;;;;;;;13.88;7.62;;;;;;;13.71;33.09;101361.95;1759781;80;21058;-73
2021/10/26 10:08:22;;;;;;;12.65;7.03;;;;;;;13.76;33.00;101353.88;1758438;80;21999;-73
2021/10/26 10:10:54;;;;;;;18.50;7.50;;;;;;;13.70;32.92;101348.75;1754512;80;21065;-73
2021/10/26 10:13:21;;;;;;;15.38;7.67;;;;;;;13.90;32.63;101342.85;1746058;80;21054;-73
2021/10/26 10:15:48;;;;;;;32.30;15.00;;;;;;;13.95;33.05;101341.78;1755281;80;21326;-74
2021/10/26 10:18:21;;;;;;;14.23;8.08;;;;;;;13.84;32.70;101334.63;1729264;82;21531;-74
2021/10/26 10:20:53;;;;;;;13.50;6.85;;;;;;;13.97;33.69;101328.50;1757340;80;21065;-73
2021/10/26 10:23:20;;;;;;;17.10;7.60;;;;;;;13.99;32.85;101320.91;1756399;80;21108;-75
2021/10/26 10:25:47;;;;;;;16.75;7.17;;;;;;;14.30;32.54;101322.53;1758595;80;21014;-75
2021/10/26 10:28:15;;;;;;;13.53;6.85;;;;;;;14.41;31.78;101315.56;1755847;80;21081;-73
2021/10/26 10:30:42;;;;;;;15.00;7.90;;;;;;;14.56;31.52;101304.47;1739912;80;21111;-74
2021/10/26 10:33:08;;;;;;;16.45;7.65;;;;;;;14.87;31.50;101306.02;1754024;80;21386;-77
2021/10/26 10:35:35;;;;;;;20.08;6.72;;;;;;;15.19;31.10;101304.84;1754070;80;21065;-75
2021/10/26 10:38:01;;;;;;;11.88;6.92;;;;;;;15.30;30.76;101291.17;1762493;80;21037;-75
2021/10/26 10:40:31;;;;;;;9.90;6.12;;;;;;;14.94;30.71;101301.37;1732635;80;21521;-75
2021/10/26 10:42:58;;;;;;;15.68;6.22;;;;;;;14.82;30.96;101291.61;1759851;80;21770;-75
2021/10/26 10:45:34;;;;;;;13.43;6.15;;;;;;;14.97;30.75;101293.28;1761061;80;21045;-74
2021/10/26 10:48:27;;;;;;;18.00;6.85;;;;;;;15.06;30.82;101288.97;1760150;80;21508;-73
2021/10/26 10:51:11;;;;;;;13.15;6.03;;;;;;;15.06;30.14;101290.30;1756606;80;21100;-73
2021/10/26 10:53:39;;;;;;;20.92;6.67;;;;;;;14.50;30.90;101277.28;1757948;79;21548;-74
2021/10/26 10:56:20;;;;;;;13.32;5.00;;;;;;;14.32;31.15;101269.03;1762834;79;21038;-74
2021/10/26 10:58:49;;;;;;;;;;;;;;;14.24;30.70;101271.06;1766367;79;21093;-73
2021/10/26 11:01:35;;;;;;;13.72;6.20;;;;;;;14.07;31.70;101279.59;1761480;80;20196;-74
2021/10/26 11:04:27;;;;;;;9.95;5.17;;;;;;;14.20;31.71;101281.39;1756523;80;20990;-73
2021/10/26 11:06:56;;;;;;;17.42;6.17;;;;;;;14.11;31.46;101273.28;1754193;80;21163;-73
2021/10/26 11:09:34;;;;;;;11.88;5.60;;;;;;;14.03;31.44;101262.95;1745630;80;21232;-73
2021/10/26 11:12:33;;;;;;;12.68;5.28;;;;;;;13.98;30.82;101260.03;1751113;80;21106;-73
2021/10/26 11:15:07;;;;;;;25.43;5.90;;;;;;;13.69;30.68;101262.30;1750503;80;21049;-73
2021/10/26 11:17:40;;;;;;;11.08;5.17;;;;;;;13.69;31.30;101254.35;1770910;80;21053;-74
2021/10/26 11:20:11;;;;;;;11.12;5.15;;;;;;;13.62;31.21;101258.54;1767683;80;21049;-75
2021/10/26 11:23:02;;;;;;;13.00;5.78;;;;;;;13.43;31.87;101262.22;1768842;80;21164;-75
2021/10/26 11:25:35;;;;;;;10.85;5.75;;;;;;;13.45;31.94;101268.77;1774329;79;21108;-75
2021/10/26 11:28:17;;;;;;;13.18;4.95;;;;;;;13.34;31.75;101253.67;1741455;82;21045;-73
2021/10/26 11:30:49;;;;;;;16.80;6.40;;;;;;;13.31;32.37;101241.41;1752381;80;21105;-73
2021/10/26 11:33:29;;;;;;;18.12;6.00;;;;;;;13.39;32.75;101236.77;1751015;80;21094;-74
2021/10/26 11:36:05;;;;;;;18.27;8.45;;;;;;;13.66;31.78;101230.64;1747610;80;21524;-73
2021/10/26 11:38:48;;;;;;;28.12;9.78;;;;;;;13.82;31.78;101223.92;1734939;82;21073;-74